Minnie, Kentucky
Current Conditions -  °F | °C
As of 7:55 AM on Tuesday 21 Oct 2014 (Local Time) from KPBX Reporting Station
Broken Clouds Broken Clouds  
Wind Chill: 50°   Ceiling: 5500
Heat Index: 50°   Visibility: 10mi
Dew Point: 48°   Wind: 3mph
Humidity: 93%   Direction: 200°SSW
Pressure: 29.95"   Gusts: NA
Location:  37.48°N, 82.76°W
Report Text: KPBX 211155Z AUTO 20003KT 10SM SCT015 BKN055 10/09 A2995 RMK AO2 T01010090 10121 20098
Loading
Personal Weather Stations






























Interactive Weather Map
Tropical Storm Tracking
New forecast layout! Learn more

10-Day Weather Forecast

Advertisements
Track Severe Weather on mobile